Time;durP1;ratioP1;P1;durP2;ratioP2;P2;SDS_P1;SDS_P2;PMS_P1;PMS_P2;Temp;Humidity;BMP_temperature;BMP_pressure;BME280_temperature;BME280_humidity;BME280_pressure;Samples;Min_cycle;Max_cycle;Signal;HPM_P1;HPM_P2
2023/08/22 00:02:21;;;;;;;4.30;1.70;;;;;;;20.24;68.09;101353.52;108353;1259;72204;-54
2023/08/22 00:04:48;;;;;;;3.60;1.70;;;;;;;20.22;67.96;101357.30;107926;1259;59274;-62
2023/08/22 00:07:14;;;;;;;5.90;1.80;;;;;;;20.21;68.10;101350.52;108323;1259;60856;-57
2023/08/22 00:09:40;;;;;;;4.10;1.70;;;;;;;20.20;68.23;101344.84;108149;1257;59439;-59
2023/08/22 00:12:07;;;;;;;4.70;1.70;;;;;;;20.20;68.26;101336.43;108688;1257;59118;-56
2023/08/22 00:14:34;;;;;;;5.40;1.60;;;;;;;20.20;68.45;101332.45;108105;1257;59419;-61
2023/08/22 00:17:00;;;;;;;3.20;1.60;;;;;;;20.19;68.36;101332.34;108085;1258;61261;-56
2023/08/22 00:19:27;;;;;;;4.20;1.70;;;;;;;20.18;68.11;101334.85;108018;1259;59293;-59
2023/08/22 00:21:56;;;;;;;6.00;1.70;;;;;;;20.15;68.03;101334.19;108016;1258;59298;-57
2023/08/22 00:24:23;;;;;;;3.90;1.60;;;;;;;20.13;68.09;101330.88;108024;1257;59281;-57
2023/08/22 00:26:50;;;;;;;3.40;1.40;;;;;;;20.09;68.26;101322.66;107870;1258;70858;-55
2023/08/22 00:29:16;;;;;;;5.00;1.60;;;;;;;20.04;68.35;101321.02;108186;1258;59105;-62
2023/08/22 00:31:43;;;;;;;4.20;1.50;;;;;;;19.99;68.37;101316.12;108497;1260;61157;-52
2023/08/22 00:34:09;;;;;;;5.60;1.60;;;;;;;19.95;68.47;101310.45;107989;1260;61298;-59
2023/08/22 00:36:36;;;;;;;3.40;1.40;;;;;;;19.90;68.65;101305.04;108090;1259;61167;-56
2023/08/22 00:39:02;;;;;;;3.20;1.40;;;;;;;19.85;68.69;101300.35;107827;1257;61263;-59
2023/08/22 00:41:29;;;;;;;4.30;1.60;;;;;;;19.81;68.93;101301.14;107997;1259;61129;-54
2023/08/22 00:43:55;;;;;;;6.60;1.70;;;;;;;19.76;69.08;101303.79;107970;1257;61369;-53
2023/08/22 00:46:23;;;;;;;6.10;2.40;;;;;;;19.71;69.41;101301.89;108414;1259;61355;-56
2023/08/22 00:48:50;;;;;;;4.30;2.00;;;;;;;19.65;69.71;101305.34;108271;1258;72805;-56
2023/08/22 00:51:17;;;;;;;5.30;2.10;;;;;;;19.60;69.93;101308.80;107910;1260;70062;-56
2023/08/22 00:53:45;;;;;;;4.10;2.00;;;;;;;19.57;70.39;101309.77;107767;1259;71438;-59
2023/08/22 00:56:11;;;;;;;8.20;2.20;;;;;;;19.54;70.28;101306.06;107985;1259;61270;-56
2023/08/22 00:58:38;;;;;;;3.90;1.80;;;;;;;19.52;70.30;101308.48;108034;1259;61135;-56
2023/08/22 01:01:05;;;;;;;4.00;1.50;;;;;;;19.50;70.44;101305.39;107739;1259;73781;-57
2023/08/22 01:03:31;;;;;;;4.90;1.70;;;;;;;19.48;70.84;101306.31;108038;1257;70361;-56
2023/08/22 01:06:04;;;;;;;4.20;1.50;;;;;;;19.47;70.81;101305.63;108474;1259;72455;-54
2023/08/22 01:08:32;;;;;;;4.20;1.60;;;;;;;19.45;71.08;101311.43;108174;1259;62070;-57
2023/08/22 01:11:08;;;;;;;5.10;1.80;;;;;;;19.44;71.50;101321.17;107729;1259;61217;-58
2023/08/22 01:13:38;;;;;;;5.40;1.90;;;;;;;19.43;71.66;101323.58;108050;1259;74713;-54
2023/08/22 01:16:06;;;;;;;5.10;1.50;;;;;;;19.44;72.19;101324.15;107825;1259;69934;-57
2023/08/22 01:18:34;;;;;;;4.60;1.80;;;;;;;19.46;72.87;101318.70;107989;1260;71636;-55
2023/08/22 01:21:07;;;;;;;5.50;1.80;;;;;;;19.47;73.07;101309.05;107922;1259;61235;-60
2023/08/22 01:23:34;;;;;;;6.40;1.90;;;;;;;19.47;73.47;101305.83;107946;1257;59836;-56
2023/08/22 01:26:00;;;;;;;5.70;2.10;;;;;;;19.46;73.67;101306.79;108235;1259;59641;-59
2023/08/22 01:28:36;;;;;;;3.50;1.70;;;;;;;19.46;74.00;101308.86;108007;1259;59318;-55
2023/08/22 01:31:17;;;;;;;4.00;2.10;;;;;;;19.44;74.14;101307.09;107808;1260;72791;-57
2023/08/22 01:33:56;;;;;;;4.60;2.00;;;;;;;19.43;74.22;101304.40;107727;1258;61899;-56
2023/08/22 01:36:24;;;;;;;5.60;2.00;;;;;;;19.41;74.19;101303.27;107890;1262;59407;-57
2023/08/22 01:38:53;;;;;;;6.30;1.90;;;;;;;19.39;74.05;101299.23;108369;1259;73625;-57
2023/08/22 01:41:20;;;;;;;6.00;2.00;;;;;;;19.39;73.86;101294.02;108004;1259;70062;-56
2023/08/22 01:43:50;;;;;;;5.50;2.00;;;;;;;19.38;73.85;101282.27;108012;1257;71693;-54
2023/08/22 01:46:16;;;;;;;6.00;1.90;;;;;;;19.38;73.79;101271.77;108186;1258;61468;-59
2023/08/22 01:48:43;;;;;;;4.70;1.80;;;;;;;19.40;74.06;101269.00;108060;1257;61370;-55
2023/08/22 01:51:10;;;;;;;3.60;2.00;;;;;;;19.40;74.00;101272.09;107404;1258;59858;-56
2023/08/22 01:53:36;;;;;;;5.30;2.10;;;;;;;19.43;74.04;101276.58;107736;1258;70000;-53
2023/08/22 01:56:03;;;;;;;7.50;1.90;;;;;;;19.45;73.92;101277.73;107898;1259;61436;-53
2023/08/22 01:58:29;;;;;;;6.30;2.00;;;;;;;19.47;74.06;101278.13;107942;1258;59278;-59
2023/08/22 02:00:56;;;;;;;5.90;2.20;;;;;;;19.50;73.94;101279.61;108035;1259;59149;-55
2023/08/22 02:03:23;;;;;;;6.10;1.90;;;;;;;19.53;73.93;101277.79;108191;1257;61142;-58
2023/08/22 02:05:49;;;;;;;4.50;1.70;;;;;;;19.56;73.88;101272.14;108378;1259;70026;-58
2023/08/22 02:08:16;;;;;;;8.10;2.00;;;;;;;19.60;73.89;101272.18;107665;1257;72713;-59
2023/08/22 02:10:43;;;;;;;6.80;2.20;;;;;;;19.62;73.79;101272.05;107839;1259;60748;-56
2023/08/22 02:13:09;;;;;;;5.70;2.30;;;;;;;19.63;73.71;101277.05;107951;1260;59430;-58
2023/08/22 02:15:35;;;;;;;4.90;1.80;;;;;;;19.64;73.74;101275.18;107943;1259;61312;-58
2023/08/22 02:18:02;;;;;;;5.20;2.00;;;;;;;19.67;73.71;101261.90;107687;1257;59263;-56
2023/08/22 02:20:29;;;;;;;3.10;1.70;;;;;;;19.67;73.70;101263.14;108313;1259;72688;-59
2023/08/22 02:22:55;;;;;;;5.40;2.00;;;;;;;19.67;73.73;101258.63;108300;1259;61161;-56
2023/08/22 02:25:22;;;;;;;5.10;1.80;;;;;;;19.67;73.53;101249.97;107931;1257;61134;-57
2023/08/22 02:27:48;;;;;;;7.40;1.90;;;;;;;19.67;73.40;101247.31;107932;1259;59583;-59
2023/08/22 02:30:15;;;;;;;5.90;1.80;;;;;;;19.67;73.32;101245.00;107664;1257;61156;-62
2023/08/22 02:32:42;;;;;;;3.90;1.80;;;;;;;19.68;73.41;101241.81;108050;1259;71688;-62
2023/08/22 02:35:09;;;;;;;5.80;1.90;;;;;;;19.69;73.51;101236.98;108134;1258;61363;-55
2023/08/22 02:37:35;;;;;;;6.50;2.20;;;;;;;19.70;73.55;101234.09;108013;1259;59372;-56
2023/08/22 02:40:04;;;;;;;4.80;1.70;;;;;;;19.72;73.54;101236.13;107922;1259;59864;-58
2023/08/22 02:42:30;;;;;;;4.30;1.60;;;;;;;19.73;73.58;101236.40;108131;1259;70119;-61
2023/08/22 02:44:57;;;;;;;4.60;1.90;;;;;;;19.75;73.64;101233.80;108035;1259;61240;-59
2023/08/22 02:47:23;;;;;;;4.70;1.90;;;;;;;19.74;73.71;101231.17;107647;1259;59447;-57
2023/08/22 02:49:50;;;;;;;5.70;1.90;;;;;;;19.74;73.74;101220.77;108164;1257;59338;-57
2023/08/22 02:52:16;;;;;;;5.10;1.50;;;;;;;19.76;73.77;101215.73;107981;1257;59362;-58
2023/08/22 02:54:43;;;;;;;5.00;2.50;;;;;;;19.76;73.80;101212.64;107796;1257;59274;-62
2023/08/22 02:57:09;;;;;;;5.10;1.80;;;;;;;19.76;74.06;101216.19;107761;1257;61275;-56
2023/08/22 02:59:36;;;;;;;5.70;1.70;;;;;;;19.75;73.99;101209.59;107785;1259;59264;-58
2023/08/22 03:02:03;;;;;;;5.00;2.00;;;;;;;19.75;73.95;101211.91;107814;1259;60344;-58
2023/08/22 03:04:32;;;;;;;4.50;1.80;;;;;;;19.75;73.93;101215.25;108094;1260;73476;-59
2023/08/22 03:06:59;;;;;;;5.80;1.90;;;;;;;19.76;73.85;101221.58;107717;1257;70097;-56
2023/08/22 03:09:26;;;;;;;5.40;1.80;;;;;;;19.79;73.89;101216.10;107854;1259;71997;-57
2023/08/22 03:11:52;;;;;;;5.30;2.10;;;;;;;19.81;73.82;101210.41;107790;1259;60508;-53
2023/08/22 03:14:19;;;;;;;9.10;2.20;;;;;;;19.81;73.81;101211.02;107722;1259;61234;-58
2023/08/22 03:16:45;;;;;;;4.60;1.80;;;;;;;19.83;73.75;101211.92;107684;1257;61267;-59
2023/08/22 03:19:12;;;;;;;6.30;1.70;;;;;;;19.84;73.62;101211.14;108068;1258;59346;-58
2023/08/22 03:21:39;;;;;;;6.10;1.70;;;;;;;19.85;73.57;101209.33;107964;1258;72771;-58
2023/08/22 03:24:05;;;;;;;4.20;1.90;;;;;;;19.86;73.35;101208.89;107932;1259;60798;-59
2023/08/22 03:26:32;;;;;;;5.30;1.60;;;;;;;19.86;73.23;101207.06;107546;1258;59658;-59
2023/08/22 03:28:58;;;;;;;5.80;2.00;;;;;;;19.86;73.17;101212.98;107903;1258;75119;-55
2023/08/22 03:31:28;;;;;;;3.90;1.80;;;;;;;19.86;73.19;101211.66;107886;1259;61391;-58
2023/08/22 03:33:54;;;;;;;5.30;2.20;;;;;;;19.88;73.25;101210.24;107503;1259;71960;-58
2023/08/22 03:36:21;;;;;;;4.60;2.10;;;;;;;19.88;73.31;101205.50;107832;1259;61967;-59
2023/08/22 03:38:51;;;;;;;4.70;2.20;;;;;;;19.89;73.43;101208.07;107808;1260;59293;-58
2023/08/22 03:41:18;;;;;;;6.40;1.90;;;;;;;19.89;73.48;101218.76;107275;1258;74630;-56
2023/08/22 03:43:44;;;;;;;4.80;1.90;;;;;;;19.90;73.37;101218.99;107654;1258;71707;-53
2023/08/22 03:46:11;;;;;;;5.60;1.80;;;;;;;19.92;73.38;101224.52;107719;1259;61347;-59
2023/08/22 03:48:47;;;;;;;5.50;1.80;;;;;;;19.93;73.35;101227.92;107470;1258;62518;-58
2023/08/22 03:51:13;;;;;;;4.70;1.90;;;;;;;19.95;73.19;101224.36;107247;1258;61667;-55
2023/08/22 03:53:39;;;;;;;6.50;1.80;;;;;;;20.00;73.20;101227.59;107779;1260;59237;-58
2023/08/22 03:56:06;;;;;;;5.50;1.80;;;;;;;20.03;73.07;101225.27;107509;1259;61727;-58
2023/08/22 03:58:33;;;;;;;6.60;1.90;;;;;;;20.07;73.11;101227.27;107373;1259;61250;-60
2023/08/22 04:01:03;;;;;;;4.20;2.00;;;;;;;20.09;72.91;101222.34;107381;1257;61820;-55
2023/08/22 04:03:31;;;;;;;5.30;1.60;;;;;;;20.13;72.64;101210.73;107557;1259;61343;-57
2023/08/22 04:05:59;;;;;;;6.30;2.20;;;;;;;20.14;72.67;101211.38;107920;1258;75883;-57
2023/08/22 04:08:25;;;;;;;4.80;2.00;;;;;;;20.15;72.52;101211.13;107822;1259;69630;-62
2023/08/22 04:10:53;;;;;;;5.10;2.00;;;;;;;20.15;72.61;101205.04;107714;1259;72665;-62
2023/08/22 04:13:19;;;;;;;4.50;1.90;;;;;;;20.13;72.66;101200.38;108330;1262;62117;-57
2023/08/22 04:15:46;;;;;;;4.60;1.80;;;;;;;20.12;72.76;101194.30;107779;1258;61174;-54
2023/08/22 04:18:12;;;;;;;4.50;1.70;;;;;;;20.09;72.73;101194.52;107667;1259;60003;-58
2023/08/22 04:20:39;;;;;;;5.10;2.00;;;;;;;20.07;72.61;101190.34;107804;1257;71114;-56
2023/08/22 04:23:06;;;;;;;4.70;1.90;;;;;;;20.05;72.53;101194.99;108088;1259;70743;-58
2023/08/22 04:25:32;;;;;;;4.10;1.70;;;;;;;20.02;72.51;101211.61;107718;1258;59275;-59
2023/08/22 04:28:00;;;;;;;8.00;2.30;;;;;;;19.99;72.37;101214.70;107717;1259;61238;-57
2023/08/22 04:30:26;;;;;;;3.50;1.70;;;;;;;19.99;72.65;101213.67;107899;1258;73897;-57
2023/08/22 04:32:53;;;;;;;3.70;1.90;;;;;;;19.98;72.79;101214.46;108026;1258;59270;-55
2023/08/22 04:35:20;;;;;;;6.40;1.80;;;;;;;20.01;72.88;101210.88;107585;1259;61305;-57
2023/08/22 04:37:46;;;;;;;6.30;2.10;;;;;;;20.04;72.80;101208.11;107933;1258;62916;-60
2023/08/22 04:40:12;;;;;;;4.70;1.90;;;;;;;20.07;73.16;101211.00;107545;1257;61181;-56
2023/08/22 04:42:39;;;;;;;3.40;1.80;;;;;;;20.10;73.22;101207.88;107732;1259;61161;-57
2023/08/22 04:45:06;;;;;;;7.60;2.20;;;;;;;20.13;73.30;101203.27;107960;1259;59155;-51
2023/08/22 04:47:33;;;;;;;4.70;2.00;;;;;;;20.16;73.25;101206.05;107972;1259;72104;-52
2023/08/22 04:49:59;;;;;;;4.10;2.10;;;;;;;20.21;73.01;101207.78;108240;1258;60865;-49
2023/08/22 04:52:26;;;;;;;7.60;1.90;;;;;;;20.27;72.86;101215.50;108035;1259;59549;-54
2023/08/22 04:54:55;;;;;;;5.90;2.10;;;;;;;20.30;72.66;101213.33;108184;1259;61676;-54
2023/08/22 04:57:23;;;;;;;5.50;2.00;;;;;;;20.35;72.42;101212.28;108001;1259;70962;-54
2023/08/22 04:59:53;;;;;;;8.60;2.30;;;;;;;20.39;72.22;101204.85;107542;1257;72332;-50
2023/08/22 05:02:21;;;;;;;5.70;2.20;;;;;;;20.43;72.43;101194.43;107763;1259;61231;-51
2023/08/22 05:04:49;;;;;;;5.00;2.10;;;;;;;20.47;72.13;101192.98;107690;1259;59117;-52
2023/08/22 05:07:15;;;;;;;4.50;2.00;;;;;;;20.51;71.90;101190.84;107899;1257;73413;-53
2023/08/22 05:09:41;;;;;;;7.20;1.90;;;;;;;20.54;71.86;101192.59;108065;1257;61742;-52
2023/08/22 05:12:08;;;;;;;6.30;2.30;;;;;;;20.57;71.82;101196.48;107439;1259;59770;-50
2023/08/22 05:14:34;;;;;;;5.10;1.70;;;;;;;20.60;71.66;101194.92;107606;1262;61125;-56
2023/08/22 05:17:01;;;;;;;5.70;2.10;;;;;;;20.64;71.53;101192.80;107833;1257;62042;-49
2023/08/22 05:19:27;;;;;;;5.40;1.80;;;;;;;20.67;71.44;101188.80;107738;1259;60155;-48
2023/08/22 05:21:54;;;;;;;5.40;1.90;;;;;;;20.71;71.46;101191.12;108765;1259;59037;-50
2023/08/22 05:24:20;;;;;;;4.80;2.20;;;;;;;20.75;71.50;101197.89;108733;1257;59658;-48
2023/08/22 05:26:47;;;;;;;6.60;2.00;;;;;;;20.78;71.48;101188.98;108765;1259;59261;-51
2023/08/22 05:29:14;;;;;;;5.60;2.00;;;;;;;20.83;71.59;101188.88;108783;1257;59071;-49
2023/08/22 05:31:40;;;;;;;6.10;2.00;;;;;;;20.87;71.66;101193.95;108797;1258;73880;-52
2023/08/22 05:34:07;;;;;;;5.30;2.20;;;;;;;20.92;71.55;101195.32;108798;1257;71289;-50
2023/08/22 05:36:34;;;;;;;5.40;2.00;;;;;;;20.98;71.42;101195.23;108008;1258;61352;-50
2023/08/22 05:39:00;;;;;;;5.50;2.00;;;;;;;21.04;71.42;101197.62;107799;1262;60812;-50
2023/08/22 05:41:27;;;;;;;5.60;2.10;;;;;;;21.10;71.14;101204.50;107627;1259;59177;-52
2023/08/22 05:43:53;;;;;;;5.00;1.90;;;;;;;21.15;71.11;101209.30;108060;1259;75434;-52
2023/08/22 05:46:20;;;;;;;6.00;2.20;;;;;;;21.20;71.08;101207.66;107525;1257;61033;-49
2023/08/22 05:48:46;;;;;;;5.80;2.20;;;;;;;21.26;70.94;101205.89;108195;1259;72408;-51
2023/08/22 05:51:13;;;;;;;7.00;2.20;;;;;;;21.31;70.92;101203.27;107925;1259;61289;-50
2023/08/22 05:53:39;;;;;;;5.50;2.10;;;;;;;21.38;70.97;101206.40;107567;1259;59941;-49
2023/08/22 05:56:06;;;;;;;7.90;2.20;;;;;;;21.49;71.13;101207.27;107999;1258;59356;-52
2023/08/22 05:58:34;;;;;;;3.90;2.00;;;;;;;21.60;71.01;101211.34;107694;1259;61151;-49
2023/08/22 06:01:10;;;;;;;6.90;2.20;;;;;;;21.67;70.42;101211.98;108305;1259;73251;-52
2023/08/22 06:03:38;;;;;;;5.10;2.10;;;;;;;21.72;70.43;101212.86;108099;1259;62029;-51
2023/08/22 06:06:05;;;;;;;8.00;2.00;;;;;;;21.78;70.29;101205.44;108486;1259;60916;-51
2023/08/22 06:08:31;;;;;;;6.30;2.50;;;;;;;21.90;70.55;101201.91;108455;1259;73098;-53
2023/08/22 06:10:58;;;;;;;7.20;2.10;;;;;;;22.00;70.22;101204.32;108169;1258;59303;-49
2023/08/22 06:13:24;;;;;;;5.30;1.90;;;;;;;22.07;69.66;101209.86;108126;1259;61393;-56
2023/08/22 06:15:51;;;;;;;6.30;2.10;;;;;;;22.14;69.17;101202.29;107697;1259;61273;-52
2023/08/22 06:18:18;;;;;;;6.90;1.70;;;;;;;22.22;68.56;101204.13;108664;1259;59074;-51
2023/08/22 06:20:44;;;;;;;5.10;1.80;;;;;;;22.27;68.10;101201.89;108500;1258;59570;-51
2023/08/22 06:23:11;;;;;;;6.00;1.80;;;;;;;22.34;67.45;101203.45;108124;1259;71170;-49
2023/08/22 06:25:37;;;;;;;4.20;1.80;;;;;;;22.40;66.90;101203.42;108094;1258;59099;-50
2023/08/22 06:28:04;;;;;;;5.40;1.70;;;;;;;22.49;66.79;101200.54;108234;1258;58966;-53
2023/08/22 06:30:30;;;;;;;7.80;2.00;;;;;;;22.59;66.73;101195.39;108371;1259;61205;-51
2023/08/22 06:32:57;;;;;;;5.60;1.90;;;;;;;22.71;66.42;101196.20;108178;1259;74661;-52
2023/08/22 06:35:24;;;;;;;7.40;1.80;;;;;;;22.86;66.14;101191.32;108105;1258;69629;-51
2023/08/22 06:37:51;;;;;;;8.60;2.30;;;;;;;23.00;65.59;101191.45;108128;1259;72734;-51
2023/08/22 06:40:17;;;;;;;8.80;2.40;;;;;;;23.15;65.33;101191.43;108323;1259;61888;-48
2023/08/22 06:42:44;;;;;;;5.80;2.00;;;;;;;23.28;64.43;101190.33;108004;1258;59250;-50
2023/08/22 06:45:11;;;;;;;6.40;2.10;;;;;;;23.43;64.01;101192.54;108316;1259;73628;-53
2023/08/22 06:47:38;;;;;;;4.50;1.80;;;;;;;23.57;63.23;101192.80;108390;1259;59240;-49
2023/08/22 06:50:05;;;;;;;5.30;1.70;;;;;;;23.66;62.05;101196.34;108307;1259;72932;-52
2023/08/22 06:52:32;;;;;;;4.50;1.50;;;;;;;23.71;61.65;101197.55;108143;1262;61634;-48
2023/08/22 06:54:58;;;;;;;5.80;1.80;;;;;;;23.79;61.11;101202.19;108408;1259;61165;-49
2023/08/22 06:57:25;;;;;;;4.60;1.70;;;;;;;23.91;61.05;101203.73;108143;1260;73203;-48
2023/08/22 06:59:52;;;;;;;5.00;1.60;;;;;;;24.08;60.70;101202.05;107792;1259;237666;-53
2023/08/22 07:02:18;;;;;;;5.40;1.90;;;;;;;24.26;59.82;101198.52;107872;1260;59527;-50
2023/08/22 07:04:45;;;;;;;4.80;1.40;;;;;;;24.48;59.48;101201.59;108001;1259;61668;-48
2023/08/22 07:07:11;;;;;;;7.00;1.50;;;;;;;24.68;58.64;101200.55;108043;1258;61217;-50
2023/08/22 07:09:38;;;;;;;6.30;1.50;;;;;;;24.79;58.11;101199.08;108437;1258;59378;-49
2023/08/22 07:12:04;;;;;;;5.40;1.70;;;;;;;24.76;56.87;101205.41;108503;1259;61266;-49
2023/08/22 07:14:31;;;;;;;5.00;1.40;;;;;;;24.71;56.65;101210.30;108409;1259;59414;-53
2023/08/22 07:16:57;;;;;;;7.30;1.80;;;;;;;24.72;56.68;101212.05;108271;1260;61230;-49
2023/08/22 07:19:24;;;;;;;6.20;1.40;;;;;;;24.77;57.03;101214.85;107969;1260;61817;-55
2023/08/22 07:22:06;;;;;;;5.00;1.40;;;;;;;24.86;57.33;101210.92;108168;1259;72910;-50
2023/08/22 07:24:33;;;;;;;4.20;1.20;;;;;;;24.98;56.65;101210.59;108409;1260;59213;-53
